sensor_id;sensor_type;location;lat;lon;timestamp;temperature;humidity
79716;DHT22;69209;51.420;5.400;2023-04-19T00:01:09;13.80;73.20
79716;DHT22;69209;51.420;5.400;2023-04-19T00:03:35;13.80;73.20
79716;DHT22;69209;51.420;5.400;2023-04-19T00:06:01;13.80;73.10
79716;DHT22;69209;51.420;5.400;2023-04-19T00:08:26;13.80;73.10
79716;DHT22;69209;51.420;5.400;2023-04-19T00:10:52;13.80;73.00
79716;DHT22;69209;51.420;5.400;2023-04-19T00:13:17;13.80;73.00
79716;DHT22;69209;51.420;5.400;2023-04-19T00:15:43;13.80;73.00
79716;DHT22;69209;51.420;5.400;2023-04-19T00:18:08;13.90;73.00
79716;DHT22;69209;51.420;5.400;2023-04-19T00:20:34;13.90;72.90
79716;DHT22;69209;51.420;5.400;2023-04-19T00:22:59;13.90;72.90
79716;DHT22;69209;51.420;5.400;2023-04-19T00:25:25;13.90;72.90
79716;DHT22;69209;51.420;5.400;2023-04-19T00:27:50;13.90;72.80
79716;DHT22;69209;51.420;5.400;2023-04-19T00:30:16;13.90;72.80
79716;DHT22;69209;51.420;5.400;2023-04-19T00:32:41;13.90;72.80
79716;DHT22;69209;51.420;5.400;2023-04-19T00:35:07;13.90;72.80
79716;DHT22;69209;51.420;5.400;2023-04-19T00:37:32;13.90;72.80
79716;DHT22;69209;51.420;5.400;2023-04-19T00:39:58;13.90;72.70
79716;DHT22;69209;51.420;5.400;2023-04-19T00:42:23;14.00;72.70
79716;DHT22;69209;51.420;5.400;2023-04-19T00:44:49;14.00;72.70
79716;DHT22;69209;51.420;5.400;2023-04-19T00:47:14;14.00;72.70
79716;DHT22;69209;51.420;5.400;2023-04-19T00:49:40;14.00;72.70
79716;DHT22;69209;51.420;5.400;2023-04-19T00:52:06;14.00;72.80
79716;DHT22;69209;51.420;5.400;2023-04-19T00:54:32;14.00;72.70
79716;DHT22;69209;51.420;5.400;2023-04-19T00:56:58;14.00;72.60
79716;DHT22;69209;51.420;5.400;2023-04-19T00:59:23;14.00;72.60
79716;DHT22;69209;51.420;5.400;2023-04-19T01:01:49;14.00;72.70
79716;DHT22;69209;51.420;5.400;2023-04-19T01:04:14;14.00;72.70
79716;DHT22;69209;51.420;5.400;2023-04-19T01:06:40;14.00;72.70
79716;DHT22;69209;51.420;5.400;2023-04-19T01:09:06;14.00;72.70
79716;DHT22;69209;51.420;5.400;2023-04-19T01:11:31;14.00;72.70
79716;DHT22;69209;51.420;5.400;2023-04-19T01:13:58;14.00;72.70
79716;DHT22;69209;51.420;5.400;2023-04-19T01:16:24;14.00;72.70
79716;DHT22;69209;51.420;5.400;2023-04-19T01:18:50;14.00;72.70
79716;DHT22;69209;51.420;5.400;2023-04-19T01:21:16;14.00;72.80
79716;DHT22;69209;51.420;5.400;2023-04-19T01:23:43;14.00;72.80
79716;DHT22;69209;51.420;5.400;2023-04-19T01:26:08;14.00;72.80
79716;DHT22;69209;51.420;5.400;2023-04-19T01:28:34;14.00;72.80
79716;DHT22;69209;51.420;5.400;2023-04-19T01:30:59;14.00;72.80
79716;DHT22;69209;51.420;5.400;2023-04-19T01:33:25;14.00;72.80
79716;DHT22;69209;51.420;5.400;2023-04-19T01:35:50;14.00;72.80
79716;DHT22;69209;51.420;5.400;2023-04-19T01:38:16;14.00;72.80
79716;DHT22;69209;51.420;5.400;2023-04-19T01:40:42;14.00;72.80
79716;DHT22;69209;51.420;5.400;2023-04-19T01:43:07;14.00;72.90
79716;DHT22;69209;51.420;5.400;2023-04-19T01:45:33;14.00;72.80
79716;DHT22;69209;51.420;5.400;2023-04-19T01:48:00;14.00;72.90
79716;DHT22;69209;51.420;5.400;2023-04-19T01:50:27;14.10;72.90
79716;DHT22;69209;51.420;5.400;2023-04-19T01:52:52;14.10;72.90
79716;DHT22;69209;51.420;5.400;2023-04-19T01:55:18;14.00;72.90
79716;DHT22;69209;51.420;5.400;2023-04-19T01:57:43;14.00;72.90
79716;DHT22;69209;51.420;5.400;2023-04-19T02:00:09;14.00;73.00
79716;DHT22;69209;51.420;5.400;2023-04-19T02:02:36;14.00;73.00
79716;DHT22;69209;51.420;5.400;2023-04-19T02:05:01;14.10;73.20
79716;DHT22;69209;51.420;5.400;2023-04-19T02:07:27;14.00;73.10
79716;DHT22;69209;51.420;5.400;2023-04-19T02:09:52;14.10;73.20
79716;DHT22;69209;51.420;5.400;2023-04-19T02:12:18;14.00;73.10
79716;DHT22;69209;51.420;5.400;2023-04-19T02:14:44;14.00;73.30
79716;DHT22;69209;51.420;5.400;2023-04-19T02:17:09;14.00;73.40
79716;DHT22;69209;51.420;5.400;2023-04-19T02:19:36;14.00;73.40
79716;DHT22;69209;51.420;5.400;2023-04-19T02:22:02;14.00;73.40
79716;DHT22;69209;51.420;5.400;2023-04-19T02:24:27;14.00;73.50
79716;DHT22;69209;51.420;5.400;2023-04-19T02:26:53;14.00;73.50
79716;DHT22;69209;51.420;5.400;2023-04-19T02:29:18;14.00;73.50
79716;DHT22;69209;51.420;5.400;2023-04-19T02:31:44;14.00;73.40
79716;DHT22;69209;51.420;5.400;2023-04-19T02:34:10;14.00;73.60
79716;DHT22;69209;51.420;5.400;2023-04-19T02:36:36;14.00;73.60
79716;DHT22;69209;51.420;5.400;2023-04-19T02:39:02;14.00;73.60
79716;DHT22;69209;51.420;5.400;2023-04-19T02:41:27;14.00;73.70
79716;DHT22;69209;51.420;5.400;2023-04-19T02:43:53;14.00;73.90
79716;DHT22;69209;51.420;5.400;2023-04-19T02:46:18;14.00;73.80
79716;DHT22;69209;51.420;5.400;2023-04-19T02:48:44;14.00;74.50
79716;DHT22;69209;51.420;5.400;2023-04-19T02:51:16;14.00;73.90
79716;DHT22;69209;51.420;5.400;2023-04-19T02:53:41;14.00;73.90
79716;DHT22;69209;51.420;5.400;2023-04-19T02:56:07;13.90;73.90
79716;DHT22;69209;51.420;5.400;2023-04-19T02:58:33;14.00;74.00
79716;DHT22;69209;51.420;5.400;2023-04-19T03:00:58;14.00;74.10
79716;DHT22;69209;51.420;5.400;2023-04-19T03:03:24;14.00;74.10
79716;DHT22;69209;51.420;5.400;2023-04-19T03:05:49;14.00;74.00
79716;DHT22;69209;51.420;5.400;2023-04-19T03:08:15;14.00;74.10
79716;DHT22;69209;51.420;5.400;2023-04-19T03:10:40;14.00;74.20
79716;DHT22;69209;51.420;5.400;2023-04-19T03:13:06;14.00;74.30
79716;DHT22;69209;51.420;5.400;2023-04-19T03:15:31;14.00;74.30
79716;DHT22;69209;51.420;5.400;2023-04-19T03:17:57;13.90;74.30
79716;DHT22;69209;51.420;5.400;2023-04-19T03:20:22;13.90;74.30
79716;DHT22;69209;51.420;5.400;2023-04-19T03:22:48;13.90;74.40
79716;DHT22;69209;51.420;5.400;2023-04-19T03:25:13;13.90;74.60
79716;DHT22;69209;51.420;5.400;2023-04-19T03:27:39;13.90;74.60
79716;DHT22;69209;51.420;5.400;2023-04-19T03:30:05;13.90;74.70
79716;DHT22;69209;51.420;5.400;2023-04-19T03:32:31;13.90;74.90
79716;DHT22;69209;51.420;5.400;2023-04-19T03:34:56;13.80;74.90
79716;DHT22;69209;51.420;5.400;2023-04-19T03:37:22;13.80;74.80
79716;DHT22;69209;51.420;5.400;2023-04-19T03:39:47;13.80;74.90
79716;DHT22;69209;51.420;5.400;2023-04-19T03:42:13;13.80;75.00
79716;DHT22;69209;51.420;5.400;2023-04-19T03:44:38;13.80;75.10
79716;DHT22;69209;51.420;5.400;2023-04-19T03:47:04;13.80;75.10
79716;DHT22;69209;51.420;5.400;2023-04-19T03:49:29;13.70;75.20
79716;DHT22;69209;51.420;5.400;2023-04-19T03:51:55;13.80;75.30
79716;DHT22;69209;51.420;5.400;2023-04-19T03:54:21;13.70;75.40
79716;DHT22;69209;51.420;5.400;2023-04-19T03:56:46;13.70;75.50
79716;DHT22;69209;51.420;5.400;2023-04-19T03:59:12;13.70;75.60
79716;DHT22;69209;51.420;5.400;2023-04-19T04:01:37;13.70;75.60
79716;DHT22;69209;51.420;5.400;2023-04-19T04:04:09;13.70;75.60
79716;DHT22;69209;51.420;5.400;2023-04-19T04:06:36;13.70;75.70
79716;DHT22;69209;51.420;5.400;2023-04-19T04:09:01;13.70;75.70
79716;DHT22;69209;51.420;5.400;2023-04-19T04:11:27;13.70;75.80
79716;DHT22;69209;51.420;5.400;2023-04-19T04:13:52;13.70;75.70
79716;DHT22;69209;51.420;5.400;2023-04-19T04:16:18;13.70;75.70
79716;DHT22;69209;51.420;5.400;2023-04-19T04:18:43;13.70;75.80
79716;DHT22;69209;51.420;5.400;2023-04-19T04:21:09;13.70;75.80
79716;DHT22;69209;51.420;5.400;2023-04-19T04:23:34;13.70;75.70
79716;DHT22;69209;51.420;5.400;2023-04-19T04:26:00;13.70;75.70
79716;DHT22;69209;51.420;5.400;2023-04-19T04:28:26;13.70;75.80
79716;DHT22;69209;51.420;5.400;2023-04-19T04:30:52;13.70;75.80
79716;DHT22;69209;51.420;5.400;2023-04-19T04:33:24;13.70;75.80
79716;DHT22;69209;51.420;5.400;2023-04-19T04:35:51;13.70;75.90
79716;DHT22;69209;51.420;5.400;2023-04-19T04:38:17;13.70;75.90
79716;DHT22;69209;51.420;5.400;2023-04-19T04:40:43;13.70;75.80
79716;DHT22;69209;51.420;5.400;2023-04-19T04:43:13;13.70;75.90
79716;DHT22;69209;51.420;5.400;2023-04-19T04:45:38;13.70;75.90
79716;DHT22;69209;51.420;5.400;2023-04-19T04:48:04;13.70;76.00
79716;DHT22;69209;51.420;5.400;2023-04-19T04:50:29;13.70;75.90
79716;DHT22;69209;51.420;5.400;2023-04-19T04:52:55;13.70;75.90
79716;DHT22;69209;51.420;5.400;2023-04-19T04:55:20;13.70;76.00
79716;DHT22;69209;51.420;5.400;2023-04-19T04:57:46;13.70;76.00
79716;DHT22;69209;51.420;5.400;2023-04-19T05:00:11;13.70;76.00
79716;DHT22;69209;51.420;5.400;2023-04-19T05:02:37;13.70;76.00
79716;DHT22;69209;51.420;5.400;2023-04-19T05:05:03;13.70;76.00
79716;DHT22;69209;51.420;5.400;2023-04-19T05:07:28;13.70;76.00
79716;DHT22;69209;51.420;5.400;2023-04-19T05:09:53;13.70;76.10
79716;DHT22;69209;51.420;5.400;2023-04-19T05:12:19;13.80;76.80
79716;DHT22;69209;51.420;5.400;2023-04-19T05:14:45;13.80;75.90
79716;DHT22;69209;51.420;5.400;2023-04-19T05:17:10;13.90;75.80
79716;DHT22;69209;51.420;5.400;2023-04-19T05:19:36;13.90;75.60
79716;DHT22;69209;51.420;5.400;2023-04-19T05:22:01;14.00;75.40
79716;DHT22;69209;51.420;5.400;2023-04-19T05:24:26;14.10;75.10
79716;DHT22;69209;51.420;5.400;2023-04-19T05:26:52;14.20;74.70
79716;DHT22;69209;51.420;5.400;2023-04-19T05:29:17;14.30;74.30
79716;DHT22;69209;51.420;5.400;2023-04-19T05:31:43;14.40;74.00
79716;DHT22;69209;51.420;5.400;2023-04-19T05:34:08;14.50;73.70
79716;DHT22;69209;51.420;5.400;2023-04-19T05:36:34;14.60;73.60
79716;DHT22;69209;51.420;5.400;2023-04-19T05:38:59;14.70;73.30
79716;DHT22;69209;51.420;5.400;2023-04-19T05:41:25;14.80;73.00
79716;DHT22;69209;51.420;5.400;2023-04-19T05:43:51;15.10;72.10
79716;DHT22;69209;51.420;5.400;2023-04-19T05:46:16;15.40;71.40
79716;DHT22;69209;51.420;5.400;2023-04-19T05:48:42;15.70;70.30
79716;DHT22;69209;51.420;5.400;2023-04-19T05:51:07;16.00;70.10
79716;DHT22;69209;51.420;5.400;2023-04-19T05:53:33;16.60;68.00
79716;DHT22;69209;51.420;5.400;2023-04-19T05:55:58;17.10;66.40
79716;DHT22;69209;51.420;5.400;2023-04-19T05:58:24;17.60;65.00
79716;DHT22;69209;51.420;5.400;2023-04-19T06:00:50;18.20;63.40
79716;DHT22;69209;51.420;5.400;2023-04-19T06:03:16;19.00;61.30
79716;DHT22;69209;51.420;5.400;2023-04-19T06:05:41;20.00;59.00
79716;DHT22;69209;51.420;5.400;2023-04-19T06:08:07;20.90;56.80
79716;DHT22;69209;51.420;5.400;2023-04-19T06:10:34;21.60;54.80
79716;DHT22;69209;51.420;5.400;2023-04-19T06:12:59;22.10;53.50
79716;DHT22;69209;51.420;5.400;2023-04-19T06:15:25;21.70;53.30
79716;DHT22;69209;51.420;5.400;2023-04-19T06:17:51;21.00;54.60
79716;DHT22;69209;51.420;5.400;2023-04-19T06:20:16;21.00;56.30
79716;DHT22;69209;51.420;5.400;2023-04-19T06:22:44;21.50;54.70
79716;DHT22;69209;51.420;5.400;2023-04-19T06:25:10;21.80;54.10
79716;DHT22;69209;51.420;5.400;2023-04-19T06:27:35;21.80;54.20
79716;DHT22;69209;51.420;5.400;2023-04-19T06:30:01;21.60;54.40
79716;DHT22;69209;51.420;5.400;2023-04-19T06:32:27;21.30;55.20
79716;DHT22;69209;51.420;5.400;2023-04-19T06:34:52;21.00;56.00
79716;DHT22;69209;51.420;5.400;2023-04-19T06:37:17;20.80;56.50
79716;DHT22;69209;51.420;5.400;2023-04-19T06:39:43;20.60;57.00
79716;DHT22;69209;51.420;5.400;2023-04-19T06:42:08;20.60;57.90
79716;DHT22;69209;51.420;5.400;2023-04-19T06:44:34;20.60;54.20
79716;DHT22;69209;51.420;5.400;2023-04-19T06:47:00;20.30;50.60
79716;DHT22;69209;51.420;5.400;2023-04-19T06:49:25;20.20;51.30
79716;DHT22;69209;51.420;5.400;2023-04-19T06:51:51;20.50;51.70
79716;DHT22;69209;51.420;5.400;2023-04-19T06:54:17;21.00;51.50
79716;DHT22;69209;51.420;5.400;2023-04-19T06:59:13;21.60;51.80
79716;DHT22;69209;51.420;5.400;2023-04-19T07:01:39;21.90;51.90
79716;DHT22;69209;51.420;5.400;2023-04-19T07:04:05;22.40;51.40
79716;DHT22;69209;51.420;5.400;2023-04-19T07:06:31;23.10;50.80
79716;DHT22;69209;51.420;5.400;2023-04-19T07:08:57;23.70;50.10
79716;DHT22;69209;51.420;5.400;2023-04-19T07:11:22;24.10;49.80
79716;DHT22;69209;51.420;5.400;2023-04-19T07:13:48;24.40;49.70
79716;DHT22;69209;51.420;5.400;2023-04-19T07:16:15;24.70;49.50
79716;DHT22;69209;51.420;5.400;2023-04-19T07:18:42;25.00;49.00
79716;DHT22;69209;51.420;5.400;2023-04-19T07:21:08;25.40;48.60
79716;DHT22;69209;51.420;5.400;2023-04-19T07:23:33;25.70;47.90
79716;DHT22;69209;51.420;5.400;2023-04-19T07:26:00;26.10;47.60
79716;DHT22;69209;51.420;5.400;2023-04-19T07:28:27;26.40;47.20
79716;DHT22;69209;51.420;5.400;2023-04-19T07:30:52;26.70;46.50
79716;DHT22;69209;51.420;5.400;2023-04-19T07:33:18;27.10;46.00
79716;DHT22;69209;51.420;5.400;2023-04-19T07:35:43;27.30;45.30
79716;DHT22;69209;51.420;5.400;2023-04-19T07:38:09;27.60;44.80
79716;DHT22;69209;51.420;5.400;2023-04-19T07:40:34;27.80;44.30
79716;DHT22;69209;51.420;5.400;2023-04-19T07:43:00;28.10;43.70
79716;DHT22;69209;51.420;5.400;2023-04-19T07:45:28;28.30;43.30
79716;DHT22;69209;51.420;5.400;2023-04-19T07:47:54;28.60;43.10
79716;DHT22;69209;51.420;5.400;2023-04-19T07:50:19;28.70;42.40
79716;DHT22;69209;51.420;5.400;2023-04-19T07:52:45;29.00;42.00
79716;DHT22;69209;51.420;5.400;2023-04-19T07:55:10;29.20;41.60
79716;DHT22;69209;51.420;5.400;2023-04-19T07:57:36;29.50;39.50
79716;DHT22;69209;51.420;5.400;2023-04-19T08:00:02;29.10;32.10
79716;DHT22;69209;51.420;5.400;2023-04-19T08:02:29;28.30;31.30
79716;DHT22;69209;51.420;5.400;2023-04-19T08:04:54;28.00;31.70
79716;DHT22;69209;51.420;5.400;2023-04-19T08:07:20;28.10;31.30
79716;DHT22;69209;51.420;5.400;2023-04-19T08:09:47;27.90;30.90
79716;DHT22;69209;51.420;5.400;2023-04-19T08:12:13;28.00;31.20
79716;DHT22;69209;51.420;5.400;2023-04-19T08:14:38;27.80;31.10
79716;DHT22;69209;51.420;5.400;2023-04-19T08:17:04;28.00;30.90
79716;DHT22;69209;51.420;5.400;2023-04-19T08:19:30;28.30;30.60
79716;DHT22;69209;51.420;5.400;2023-04-19T08:21:55;28.50;30.00
79716;DHT22;69209;51.420;5.400;2023-04-19T08:24:21;28.60;30.10
79716;DHT22;69209;51.420;5.400;2023-04-19T08:26:47;28.80;29.70
79716;DHT22;69209;51.420;5.400;2023-04-19T08:29:20;28.80;29.60
79716;DHT22;69209;51.420;5.400;2023-04-19T08:31:46;29.10;29.40
79716;DHT22;69209;51.420;5.400;2023-04-19T08:34:12;29.00;29.20
79716;DHT22;69209;51.420;5.400;2023-04-19T08:36:37;28.70;29.20
79716;DHT22;69209;51.420;5.400;2023-04-19T08:39:03;28.90;28.90
79716;DHT22;69209;51.420;5.400;2023-04-19T08:41:31;29.10;28.70
79716;DHT22;69209;51.420;5.400;2023-04-19T08:43:57;29.40;28.60
79716;DHT22;69209;51.420;5.400;2023-04-19T08:46:23;29.60;28.50
79716;DHT22;69209;51.420;5.400;2023-04-19T08:48:49;29.70;28.30
79716;DHT22;69209;51.420;5.400;2023-04-19T08:51:15;30.00;28.00
79716;DHT22;69209;51.420;5.400;2023-04-19T08:53:42;30.00;28.70
79716;DHT22;69209;51.420;5.400;2023-04-19T08:56:08;29.40;27.70
79716;DHT22;69209;51.420;5.400;2023-04-19T08:58:34;27.80;28.80
79716;DHT22;69209;51.420;5.400;2023-04-19T09:01:00;26.60;29.90
79716;DHT22;69209;51.420;5.400;2023-04-19T09:03:28;25.60;30.90
79716;DHT22;69209;51.420;5.400;2023-04-19T09:05:53;24.90;31.60
79716;DHT22;69209;51.420;5.400;2023-04-19T09:08:28;24.40;32.50
79716;DHT22;69209;51.420;5.400;2023-04-19T09:10:58;24.20;32.80
79716;DHT22;69209;51.420;5.400;2023-04-19T09:13:24;23.80;33.00
79716;DHT22;69209;51.420;5.400;2023-04-19T09:15:50;23.70;33.00
79716;DHT22;69209;51.420;5.400;2023-04-19T09:18:15;23.40;33.30
79716;DHT22;69209;51.420;5.400;2023-04-19T09:20:42;23.40;33.50
79716;DHT22;69209;51.420;5.400;2023-04-19T09:23:10;23.30;33.80
79716;DHT22;69209;51.420;5.400;2023-04-19T09:25:40;23.20;33.60
79716;DHT22;69209;51.420;5.400;2023-04-19T09:28:15;23.10;33.90
79716;DHT22;69209;51.420;5.400;2023-04-19T09:30:40;23.10;33.90
79716;DHT22;69209;51.420;5.400;2023-04-19T09:33:06;23.10;34.20
79716;DHT22;69209;51.420;5.400;2023-04-19T09:35:39;23.10;34.00
79716;DHT22;69209;51.420;5.400;2023-04-19T09:38:05;23.10;33.80
79716;DHT22;69209;51.420;5.400;2023-04-19T09:40:31;22.90;34.00
79716;DHT22;69209;51.420;5.400;2023-04-19T09:42:56;22.90;33.50
79716;DHT22;69209;51.420;5.400;2023-04-19T09:45:22;22.90;33.60
79716;DHT22;69209;51.420;5.400;2023-04-19T09:48:03;22.90;33.00
79716;DHT22;69209;51.420;5.400;2023-04-19T09:50:29;22.80;32.60
79716;DHT22;69209;51.420;5.400;2023-04-19T09:52:54;22.80;33.00
79716;DHT22;69209;51.420;5.400;2023-04-19T09:55:20;22.80;33.90
79716;DHT22;69209;51.420;5.400;2023-04-19T09:57:46;23.30;35.50
79716;DHT22;69209;51.420;5.400;2023-04-19T10:00:12;23.70;36.60
79716;DHT22;69209;51.420;5.400;2023-04-19T10:02:39;24.10;36.90
79716;DHT22;69209;51.420;5.400;2023-04-19T10:05:07;24.40;36.90
79716;DHT22;69209;51.420;5.400;2023-04-19T10:07:33;24.70;37.30
79716;DHT22;69209;51.420;5.400;2023-04-19T10:09:58;24.90;38.00
79716;DHT22;69209;51.420;5.400;2023-04-19T10:12:25;25.00;37.70
79716;DHT22;69209;51.420;5.400;2023-04-19T10:14:54;25.20;37.10
79716;DHT22;69209;51.420;5.400;2023-04-19T10:17:23;25.30;36.90
79716;DHT22;69209;51.420;5.400;2023-04-19T10:19:54;25.40;38.10
79716;DHT22;69209;51.420;5.400;2023-04-19T10:22:21;25.50;38.80
79716;DHT22;69209;51.420;5.400;2023-04-19T10:25:06;25.60;38.80
79716;DHT22;69209;51.420;5.400;2023-04-19T10:27:33;25.80;38.70
79716;DHT22;69209;51.420;5.400;2023-04-19T10:29:59;25.90;39.10
79716;DHT22;69209;51.420;5.400;2023-04-19T10:32:25;26.00;38.50
79716;DHT22;69209;51.420;5.400;2023-04-19T10:34:51;26.10;38.70
79716;DHT22;69209;51.420;5.400;2023-04-19T10:37:22;26.20;38.50
79716;DHT22;69209;51.420;5.400;2023-04-19T10:39:48;26.20;38.80
79716;DHT22;69209;51.420;5.400;2023-04-19T10:42:15;26.20;38.50
79716;DHT22;69209;51.420;5.400;2023-04-19T10:44:40;26.20;38.70
79716;DHT22;69209;51.420;5.400;2023-04-19T10:47:06;26.20;38.30
79716;DHT22;69209;51.420;5.400;2023-04-19T10:49:42;26.30;38.60
79716;DHT22;69209;51.420;5.400;2023-04-19T10:52:24;26.30;38.60
79716;DHT22;69209;51.420;5.400;2023-04-19T10:54:54;26.30;38.50
79716;DHT22;69209;51.420;5.400;2023-04-19T10:57:20;26.30;38.90
79716;DHT22;69209;51.420;5.400;2023-04-19T10:59:45;26.30;38.60
79716;DHT22;69209;51.420;5.400;2023-04-19T11:02:32;26.40;38.00
79716;DHT22;69209;51.420;5.400;2023-04-19T11:04:58;26.10;31.40
79716;DHT22;69209;51.420;5.400;2023-04-19T11:07:24;25.90;29.30
79716;DHT22;69209;51.420;5.400;2023-04-19T11:09:50;25.70;28.70
79716;DHT22;69209;51.420;5.400;2023-04-19T11:12:18;25.50;27.60
79716;DHT22;69209;51.420;5.400;2023-04-19T11:14:45;25.20;27.30
79716;DHT22;69209;51.420;5.400;2023-04-19T11:17:17;24.90;27.30
79716;DHT22;69209;51.420;5.400;2023-04-19T11:19:44;24.60;26.90
79716;DHT22;69209;51.420;5.400;2023-04-19T11:22:10;24.40;27.00
79716;DHT22;69209;51.420;5.400;2023-04-19T11:24:36;24.30;27.20
79716;DHT22;69209;51.420;5.400;2023-04-19T11:27:06;24.20;27.40
79716;DHT22;69209;51.420;5.400;2023-04-19T11:29:32;24.00;27.50
79716;DHT22;69209;51.420;5.400;2023-04-19T11:31:58;23.90;27.70
79716;DHT22;69209;51.420;5.400;2023-04-19T11:34:24;23.50;28.00
79716;DHT22;69209;51.420;5.400;2023-04-19T11:36:50;23.30;28.20
79716;DHT22;69209;51.420;5.400;2023-04-19T11:39:16;23.10;28.40
79716;DHT22;69209;51.420;5.400;2023-04-19T11:41:42;23.00;28.60
79716;DHT22;69209;51.420;5.400;2023-04-19T11:44:16;22.80;28.50
79716;DHT22;69209;51.420;5.400;2023-04-19T11:47:03;22.60;28.60
79716;DHT22;69209;51.420;5.400;2023-04-19T11:49:32;22.50;28.60
79716;DHT22;69209;51.420;5.400;2023-04-19T11:52:01;22.40;29.00
79716;DHT22;69209;51.420;5.400;2023-04-19T11:54:29;22.30;29.20
79716;DHT22;69209;51.420;5.400;2023-04-19T11:56:55;22.10;29.80
79716;DHT22;69209;51.420;5.400;2023-04-19T11:59:21;22.10;31.10
79716;DHT22;69209;51.420;5.400;2023-04-19T12:01:47;22.00;30.20
79716;DHT22;69209;51.420;5.400;2023-04-19T12:04:12;21.80;30.10
79716;DHT22;69209;51.420;5.400;2023-04-19T12:06:38;21.70;30.80
79716;DHT22;69209;51.420;5.400;2023-04-19T12:09:05;21.60;31.30
79716;DHT22;69209;51.420;5.400;2023-04-19T12:11:41;21.60;31.80
79716;DHT22;69209;51.420;5.400;2023-04-19T12:14:10;21.50;31.50
79716;DHT22;69209;51.420;5.400;2023-04-19T12:16:36;21.30;31.60
79716;DHT22;69209;51.420;5.400;2023-04-19T12:19:36;21.10;31.40
79716;DHT22;69209;51.420;5.400;2023-04-19T12:22:04;21.10;31.00
79716;DHT22;69209;51.420;5.400;2023-04-19T12:24:32;21.10;31.10
79716;DHT22;69209;51.420;5.400;2023-04-19T12:26:57;21.10;30.20
79716;DHT22;69209;51.420;5.400;2023-04-19T12:29:23;21.00;29.90
79716;DHT22;69209;51.420;5.400;2023-04-19T12:31:48;20.90;29.90
79716;DHT22;69209;51.420;5.400;2023-04-19T12:34:14;20.90;30.00
79716;DHT22;69209;51.420;5.400;2023-04-19T12:36:39;20.80;30.00
79716;DHT22;69209;51.420;5.400;2023-04-19T12:39:05;20.80;30.20
79716;DHT22;69209;51.420;5.400;2023-04-19T12:41:31;21.00;31.00
79716;DHT22;69209;51.420;5.400;2023-04-19T12:43:58;21.30;31.10
79716;DHT22;69209;51.420;5.400;2023-04-19T12:46:23;21.60;31.10
79716;DHT22;69209;51.420;5.400;2023-04-19T12:48:49;21.80;31.50
79716;DHT22;69209;51.420;5.400;2023-04-19T12:51:14;22.10;32.20
79716;DHT22;69209;51.420;5.400;2023-04-19T12:53:40;22.30;32.40
79716;DHT22;69209;51.420;5.400;2023-04-19T12:56:06;22.50;32.90
79716;DHT22;69209;51.420;5.400;2023-04-19T12:58:31;22.70;32.90
79716;DHT22;69209;51.420;5.400;2023-04-19T13:00:57;22.80;33.00
79716;DHT22;69209;51.420;5.400;2023-04-19T13:03:22;22.80;33.00
79716;DHT22;69209;51.420;5.400;2023-04-19T13:05:48;22.90;33.00
79716;DHT22;69209;51.420;5.400;2023-04-19T13:08:13;23.00;33.30
79716;DHT22;69209;51.420;5.400;2023-04-19T13:10:39;23.00;33.60
79716;DHT22;69209;51.420;5.400;2023-04-19T13:13:05;23.10;33.90
79716;DHT22;69209;51.420;5.400;2023-04-19T13:15:30;23.00;34.30
79716;DHT22;69209;51.420;5.400;2023-04-19T13:17:56;23.10;34.60
79716;DHT22;69209;51.420;5.400;2023-04-19T13:20:21;23.10;35.00
79716;DHT22;69209;51.420;5.400;2023-04-19T13:22:47;23.00;35.20
79716;DHT22;69209;51.420;5.400;2023-04-19T13:25:12;23.00;35.50
79716;DHT22;69209;51.420;5.400;2023-04-19T13:27:38;23.00;36.30
79716;DHT22;69209;51.420;5.400;2023-04-19T13:30:03;23.00;36.00
79716;DHT22;69209;51.420;5.400;2023-04-19T13:32:29;22.90;36.10
79716;DHT22;69209;51.420;5.400;2023-04-19T13:34:54;22.90;36.50
79716;DHT22;69209;51.420;5.400;2023-04-19T13:37:20;22.80;36.70
79716;DHT22;69209;51.420;5.400;2023-04-19T13:39:45;22.70;37.20
79716;DHT22;69209;51.420;5.400;2023-04-19T13:42:11;22.70;37.30
79716;DHT22;69209;51.420;5.400;2023-04-19T13:44:38;22.60;37.60
79716;DHT22;69209;51.420;5.400;2023-04-19T13:47:03;22.40;37.70
79716;DHT22;69209;51.420;5.400;2023-04-19T13:49:29;22.30;38.10
79716;DHT22;69209;51.420;5.400;2023-04-19T13:51:55;22.30;38.30
79716;DHT22;69209;51.420;5.400;2023-04-19T13:54:20;22.20;38.60
79716;DHT22;69209;51.420;5.400;2023-04-19T13:56:46;22.10;38.80
79716;DHT22;69209;51.420;5.400;2023-04-19T13:59:11;22.00;40.00
79716;DHT22;69209;51.420;5.400;2023-04-19T14:01:37;21.70;34.40
79716;DHT22;69209;51.420;5.400;2023-04-19T14:04:02;21.30;30.70
79716;DHT22;69209;51.420;5.400;2023-04-19T14:06:28;20.90;30.40
79716;DHT22;69209;51.420;5.400;2023-04-19T14:08:53;20.70;30.10
79716;DHT22;69209;51.420;5.400;2023-04-19T14:11:19;20.50;30.10
79716;DHT22;69209;51.420;5.400;2023-04-19T14:13:45;20.30;30.20
79716;DHT22;69209;51.420;5.400;2023-04-19T14:16:12;20.20;30.20
79716;DHT22;69209;51.420;5.400;2023-04-19T14:18:38;20.00;29.90
79716;DHT22;69209;51.420;5.400;2023-04-19T14:21:03;19.80;29.80
79716;DHT22;69209;51.420;5.400;2023-04-19T14:23:29;19.70;29.90
79716;DHT22;69209;51.420;5.400;2023-04-19T14:25:54;19.70;31.10
79716;DHT22;69209;51.420;5.400;2023-04-19T14:28:20;19.70;32.50
79716;DHT22;69209;51.420;5.400;2023-04-19T14:30:45;19.80;32.90
79716;DHT22;69209;51.420;5.400;2023-04-19T14:33:11;19.90;34.10
79716;DHT22;69209;51.420;5.400;2023-04-19T14:35:36;19.90;34.70
79716;DHT22;69209;51.420;5.400;2023-04-19T14:38:02;19.90;35.60
79716;DHT22;69209;51.420;5.400;2023-04-19T14:40:27;19.90;35.20
79716;DHT22;69209;51.420;5.400;2023-04-19T14:42:53;19.90;35.40
79716;DHT22;69209;51.420;5.400;2023-04-19T14:45:19;19.90;35.80
79716;DHT22;69209;51.420;5.400;2023-04-19T14:47:44;19.90;37.00
79716;DHT22;69209;51.420;5.400;2023-04-19T14:50:10;19.90;37.70
79716;DHT22;69209;51.420;5.400;2023-04-19T14:52:35;19.90;37.40
79716;DHT22;69209;51.420;5.400;2023-04-19T14:55:01;19.90;38.30
79716;DHT22;69209;51.420;5.400;2023-04-19T14:57:27;19.90;38.80
79716;DHT22;69209;51.420;5.400;2023-04-19T14:59:55;19.90;39.70
79716;DHT22;69209;51.420;5.400;2023-04-19T15:02:25;20.00;40.30
79716;DHT22;69209;51.420;5.400;2023-04-19T15:04:51;20.00;40.50
79716;DHT22;69209;51.420;5.400;2023-04-19T15:07:16;20.00;40.40
79716;DHT22;69209;51.420;5.400;2023-04-19T15:09:42;20.00;40.70
79716;DHT22;69209;51.420;5.400;2023-04-19T15:12:07;20.00;41.00
79716;DHT22;69209;51.420;5.400;2023-04-19T15:14:33;20.00;41.00
79716;DHT22;69209;51.420;5.400;2023-04-19T15:16:58;20.10;41.10
79716;DHT22;69209;51.420;5.400;2023-04-19T15:19:24;20.10;41.20
79716;DHT22;69209;51.420;5.400;2023-04-19T15:21:50;20.10;41.10
79716;DHT22;69209;51.420;5.400;2023-04-19T15:24:15;20.00;40.90
79716;DHT22;69209;51.420;5.400;2023-04-19T15:26:41;20.00;41.30